sensor_id;sensor_type;location;lat;lon;timestamp;P1;durP1;ratioP1;P2;durP2;ratioP2
52918;SDS011;38793;52.690;6.812;2022-08-21T00:00:51;7.60;;;3.42;;
52918;SDS011;38793;52.690;6.812;2022-08-21T00:03:16;8.38;;;2.60;;
52918;SDS011;38793;52.690;6.812;2022-08-21T00:05:47;3.35;;;2.38;;
52918;SDS011;38793;52.690;6.812;2022-08-21T00:08:15;8.60;;;2.47;;
52918;SDS011;38793;52.690;6.812;2022-08-21T00:10:42;5.97;;;2.95;;
52918;SDS011;38793;52.690;6.812;2022-08-21T00:13:08;4.28;;;1.80;;
52918;SDS011;38793;52.690;6.812;2022-08-21T00:15:35;7.53;;;2.92;;
52918;SDS011;38793;52.690;6.812;2022-08-21T00:18:02;3.45;;;2.60;;
52918;SDS011;38793;52.690;6.812;2022-08-21T00:20:29;1.77;;;1.42;;
52918;SDS011;38793;52.690;6.812;2022-08-21T00:22:55;2.65;;;0.75;;
52918;SDS011;38793;52.690;6.812;2022-08-21T00:25:21;2.50;;;1.77;;
52918;SDS011;38793;52.690;6.812;2022-08-21T00:27:47;5.57;;;2.47;;
52918;SDS011;38793;52.690;6.812;2022-08-21T00:30:13;5.82;;;2.97;;
52918;SDS011;38793;52.690;6.812;2022-08-21T00:32:40;3.15;;;2.00;;
52918;SDS011;38793;52.690;6.812;2022-08-21T00:35:07;1.25;;;0.60;;
52918;SDS011;38793;52.690;6.812;2022-08-21T00:37:36;2.85;;;1.20;;
52918;SDS011;38793;52.690;6.812;2022-08-21T00:40:03;0.80;;;0.60;;
52918;SDS011;38793;52.690;6.812;2022-08-21T00:42:29;1.25;;;1.10;;
52918;SDS011;38793;52.690;6.812;2022-08-21T00:44:55;4.10;;;2.03;;
52918;SDS011;38793;52.690;6.812;2022-08-21T00:49:46;5.25;;;2.40;;
52918;SDS011;38793;52.690;6.812;2022-08-21T00:52:15;2.97;;;1.52;;
52918;SDS011;38793;52.690;6.812;2022-08-21T00:54:44;3.28;;;2.50;;
52918;SDS011;38793;52.690;6.812;2022-08-21T00:57:13;2.55;;;2.20;;
52918;SDS011;38793;52.690;6.812;2022-08-21T00:59:49;2.40;;;2.17;;
52918;SDS011;38793;52.690;6.812;2022-08-21T01:02:18;6.57;;;3.10;;
52918;SDS011;38793;52.690;6.812;2022-08-21T01:04:46;4.18;;;2.95;;
52918;SDS011;38793;52.690;6.812;2022-08-21T01:07:12;3.17;;;2.88;;
52918;SDS011;38793;52.690;6.812;2022-08-21T01:09:38;4.28;;;3.00;;
52918;SDS011;38793;52.690;6.812;2022-08-21T01:12:04;2.80;;;2.22;;
52918;SDS011;38793;52.690;6.812;2022-08-21T01:14:30;3.65;;;2.20;;
52918;SDS011;38793;52.690;6.812;2022-08-21T01:16:55;1.25;;;1.15;;
52918;SDS011;38793;52.690;6.812;2022-08-21T01:19:22;4.75;;;1.50;;
52918;SDS011;38793;52.690;6.812;2022-08-21T01:21:49;1.98;;;1.65;;
52918;SDS011;38793;52.690;6.812;2022-08-21T01:24:15;3.65;;;3.20;;
52918;SDS011;38793;52.690;6.812;2022-08-21T01:26:40;2.95;;;2.35;;
52918;SDS011;38793;52.690;6.812;2022-08-21T01:32:06;1.10;;;1.00;;
52918;SDS011;38793;52.690;6.812;2022-08-21T01:34:39;2.00;;;1.00;;
52918;SDS011;38793;52.690;6.812;2022-08-21T01:37:06;3.88;;;2.17;;
52918;SDS011;38793;52.690;6.812;2022-08-21T01:39:32;5.53;;;2.65;;
52918;SDS011;38793;52.690;6.812;2022-08-21T01:41:58;1.73;;;1.17;;
52918;SDS011;38793;52.690;6.812;2022-08-21T01:44:24;3.50;;;2.40;;
52918;SDS011;38793;52.690;6.812;2022-08-21T01:49:16;5.60;;;2.60;;
52918;SDS011;38793;52.690;6.812;2022-08-21T01:51:43;2.20;;;2.00;;
52918;SDS011;38793;52.690;6.812;2022-08-21T01:54:09;3.30;;;2.53;;
52918;SDS011;38793;52.690;6.812;2022-08-21T01:56:36;2.55;;;2.35;;
52918;SDS011;38793;52.690;6.812;2022-08-21T01:59:07;2.65;;;0.70;;
52918;SDS011;38793;52.690;6.812;2022-08-21T02:01:33;2.40;;;1.58;;
52918;SDS011;38793;52.690;6.812;2022-08-21T02:03:58;3.47;;;2.38;;
52918;SDS011;38793;52.690;6.812;2022-08-21T02:06:24;3.30;;;2.03;;
52918;SDS011;38793;52.690;6.812;2022-08-21T02:08:50;1.90;;;1.77;;
52918;SDS011;38793;52.690;6.812;2022-08-21T02:13:42;2.63;;;2.17;;
52918;SDS011;38793;52.690;6.812;2022-08-21T02:16:08;2.30;;;1.40;;
52918;SDS011;38793;52.690;6.812;2022-08-21T02:18:34;0.88;;;0.88;;
52918;SDS011;38793;52.690;6.812;2022-08-21T02:23:25;5.90;;;2.10;;
52918;SDS011;38793;52.690;6.812;2022-08-21T02:25:51;5.72;;;2.67;;
52918;SDS011;38793;52.690;6.812;2022-08-21T02:28:16;7.05;;;2.92;;
52918;SDS011;38793;52.690;6.812;2022-08-21T02:30:44;4.15;;;2.35;;
52918;SDS011;38793;52.690;6.812;2022-08-21T02:33:11;0.90;;;0.90;;
52918;SDS011;38793;52.690;6.812;2022-08-21T02:35:38;3.53;;;3.17;;
52918;SDS011;38793;52.690;6.812;2022-08-21T02:38:12;1.63;;;1.52;;
52918;SDS011;38793;52.690;6.812;2022-08-21T02:40:41;1.77;;;1.67;;
52918;SDS011;38793;52.690;6.812;2022-08-21T02:43:09;3.00;;;2.58;;
52918;SDS011;38793;52.690;6.812;2022-08-21T02:48:03;2.53;;;2.33;;
52918;SDS011;38793;52.690;6.812;2022-08-21T02:50:36;4.72;;;2.80;;
52918;SDS011;38793;52.690;6.812;2022-08-21T02:53:08;4.05;;;3.33;;
52918;SDS011;38793;52.690;6.812;2022-08-21T02:55:36;2.22;;;2.13;;
52918;SDS011;38793;52.690;6.812;2022-08-21T02:58:03;4.50;;;3.20;;
52918;SDS011;38793;52.690;6.812;2022-08-21T03:00:31;4.88;;;4.45;;
52918;SDS011;38793;52.690;6.812;2022-08-21T03:02:58;6.57;;;3.22;;
52918;SDS011;38793;52.690;6.812;2022-08-21T03:05:24;6.85;;;4.07;;
52918;SDS011;38793;52.690;6.812;2022-08-21T03:07:52;5.72;;;4.38;;
52918;SDS011;38793;52.690;6.812;2022-08-21T03:10:19;8.18;;;4.07;;
52918;SDS011;38793;52.690;6.812;2022-08-21T03:15:11;2.50;;;2.30;;
52918;SDS011;38793;52.690;6.812;2022-08-21T03:17:38;2.17;;;1.98;;
52918;SDS011;38793;52.690;6.812;2022-08-21T03:20:05;9.20;;;4.13;;
52918;SDS011;38793;52.690;6.812;2022-08-21T03:22:32;24.67;;;5.70;;
52918;SDS011;38793;52.690;6.812;2022-08-21T03:24:57;3.97;;;3.67;;
52918;SDS011;38793;52.690;6.812;2022-08-21T03:27:24;33.55;;;6.45;;
52918;SDS011;38793;52.690;6.812;2022-08-21T03:29:52;8.35;;;4.60;;
52918;SDS011;38793;52.690;6.812;2022-08-21T03:34:44;3.50;;;3.30;;
52918;SDS011;38793;52.690;6.812;2022-08-21T03:37:10;3.83;;;2.55;;
52918;SDS011;38793;52.690;6.812;2022-08-21T03:39:37;6.05;;;3.85;;
52918;SDS011;38793;52.690;6.812;2022-08-21T03:42:03;5.63;;;3.40;;
52918;SDS011;38793;52.690;6.812;2022-08-21T03:44:29;4.05;;;3.65;;
52918;SDS011;38793;52.690;6.812;2022-08-21T03:46:56;5.75;;;3.92;;
52918;SDS011;38793;52.690;6.812;2022-08-21T03:49:22;6.00;;;3.80;;
52918;SDS011;38793;52.690;6.812;2022-08-21T03:51:48;8.43;;;6.47;;
52918;SDS011;38793;52.690;6.812;2022-08-21T03:54:14;6.97;;;5.10;;
52918;SDS011;38793;52.690;6.812;2022-08-21T03:56:40;6.25;;;5.00;;
52918;SDS011;38793;52.690;6.812;2022-08-21T03:59:05;5.90;;;5.25;;
52918;SDS011;38793;52.690;6.812;2022-08-21T04:01:31;9.73;;;6.03;;
52918;SDS011;38793;52.690;6.812;2022-08-21T04:03:57;6.35;;;5.75;;
52918;SDS011;38793;52.690;6.812;2022-08-21T04:06:23;10.82;;;8.10;;
52918;SDS011;38793;52.690;6.812;2022-08-21T04:08:49;9.73;;;7.95;;
52918;SDS011;38793;52.690;6.812;2022-08-21T04:11:15;9.77;;;7.85;;
52918;SDS011;38793;52.690;6.812;2022-08-21T04:13:40;8.02;;;7.25;;
52918;SDS011;38793;52.690;6.812;2022-08-21T04:16:06;11.93;;;8.93;;
52918;SDS011;38793;52.690;6.812;2022-08-21T04:18:33;10.50;;;9.38;;
52918;SDS011;38793;52.690;6.812;2022-08-21T04:20:58;10.95;;;7.57;;
52918;SDS011;38793;52.690;6.812;2022-08-21T04:23:26;9.05;;;6.85;;
52918;SDS011;38793;52.690;6.812;2022-08-21T04:28:19;13.05;;;8.65;;
52918;SDS011;38793;52.690;6.812;2022-08-21T04:30:45;10.40;;;7.65;;
52918;SDS011;38793;52.690;6.812;2022-08-21T04:33:11;11.93;;;9.20;;
52918;SDS011;38793;52.690;6.812;2022-08-21T04:35:37;14.73;;;8.13;;
52918;SDS011;38793;52.690;6.812;2022-08-21T04:38:02;9.43;;;8.00;;
52918;SDS011;38793;52.690;6.812;2022-08-21T04:40:28;12.80;;;8.37;;
52918;SDS011;38793;52.690;6.812;2022-08-21T04:42:56;15.93;;;9.10;;
52918;SDS011;38793;52.690;6.812;2022-08-21T04:45:29;16.38;;;10.02;;
52918;SDS011;38793;52.690;6.812;2022-08-21T04:47:59;9.07;;;8.10;;
52918;SDS011;38793;52.690;6.812;2022-08-21T04:53:05;14.75;;;9.80;;
52918;SDS011;38793;52.690;6.812;2022-08-21T04:55:35;19.67;;;9.20;;
52918;SDS011;38793;52.690;6.812;2022-08-21T04:58:02;13.25;;;8.00;;
52918;SDS011;38793;52.690;6.812;2022-08-21T05:00:32;11.85;;;7.70;;
52918;SDS011;38793;52.690;6.812;2022-08-21T05:02:57;12.30;;;7.45;;
52918;SDS011;38793;52.690;6.812;2022-08-21T05:05:27;13.77;;;7.72;;
52918;SDS011;38793;52.690;6.812;2022-08-21T05:07:54;11.43;;;7.47;;
52918;SDS011;38793;52.690;6.812;2022-08-21T05:10:21;11.65;;;7.20;;
52918;SDS011;38793;52.690;6.812;2022-08-21T05:12:47;14.00;;;7.15;;
52918;SDS011;38793;52.690;6.812;2022-08-21T05:15:14;10.40;;;7.97;;
52918;SDS011;38793;52.690;6.812;2022-08-21T05:17:40;14.35;;;7.18;;
52918;SDS011;38793;52.690;6.812;2022-08-21T05:20:06;12.65;;;7.80;;
52918;SDS011;38793;52.690;6.812;2022-08-21T05:22:33;15.23;;;6.65;;
52918;SDS011;38793;52.690;6.812;2022-08-21T05:24:58;9.38;;;7.45;;
52918;SDS011;38793;52.690;6.812;2022-08-21T05:27:24;12.60;;;7.00;;
52918;SDS011;38793;52.690;6.812;2022-08-21T05:29:50;14.23;;;8.13;;
52918;SDS011;38793;52.690;6.812;2022-08-21T05:32:15;14.05;;;8.13;;
52918;SDS011;38793;52.690;6.812;2022-08-21T05:34:42;10.90;;;6.75;;
52918;SDS011;38793;52.690;6.812;2022-08-21T05:37:10;15.70;;;7.80;;
52918;SDS011;38793;52.690;6.812;2022-08-21T05:39:36;14.98;;;7.30;;
52918;SDS011;38793;52.690;6.812;2022-08-21T05:42:02;14.50;;;6.57;;
52918;SDS011;38793;52.690;6.812;2022-08-21T05:44:27;12.18;;;6.28;;
52918;SDS011;38793;52.690;6.812;2022-08-21T05:46:53;7.32;;;5.53;;
52918;SDS011;38793;52.690;6.812;2022-08-21T05:49:19;7.90;;;6.07;;
52918;SDS011;38793;52.690;6.812;2022-08-21T05:51:44;8.50;;;6.80;;
52918;SDS011;38793;52.690;6.812;2022-08-21T05:54:10;9.73;;;6.95;;
52918;SDS011;38793;52.690;6.812;2022-08-21T05:56:36;7.60;;;6.32;;
52918;SDS011;38793;52.690;6.812;2022-08-21T05:59:02;9.90;;;5.93;;
52918;SDS011;38793;52.690;6.812;2022-08-21T06:01:28;9.32;;;6.40;;
52918;SDS011;38793;52.690;6.812;2022-08-21T06:03:53;9.27;;;6.10;;
52918;SDS011;38793;52.690;6.812;2022-08-21T06:06:19;10.57;;;7.07;;
52918;SDS011;38793;52.690;6.812;2022-08-21T06:08:45;6.82;;;5.82;;
52918;SDS011;38793;52.690;6.812;2022-08-21T06:11:10;9.32;;;5.65;;
52918;SDS011;38793;52.690;6.812;2022-08-21T06:13:36;10.57;;;5.80;;
52918;SDS011;38793;52.690;6.812;2022-08-21T06:16:04;10.93;;;6.55;;
52918;SDS011;38793;52.690;6.812;2022-08-21T06:18:30;8.55;;;6.07;;
52918;SDS011;38793;52.690;6.812;2022-08-21T06:20:55;7.72;;;5.80;;
52918;SDS011;38793;52.690;6.812;2022-08-21T06:23:21;9.05;;;6.38;;
52918;SDS011;38793;52.690;6.812;2022-08-21T06:25:47;13.20;;;6.88;;
52918;SDS011;38793;52.690;6.812;2022-08-21T06:28:12;11.60;;;6.57;;
52918;SDS011;38793;52.690;6.812;2022-08-21T06:30:38;14.02;;;7.72;;
52918;SDS011;38793;52.690;6.812;2022-08-21T06:35:31;9.05;;;5.82;;
52918;SDS011;38793;52.690;6.812;2022-08-21T06:37:57;10.75;;;6.68;;
52918;SDS011;38793;52.690;6.812;2022-08-21T06:40:23;8.50;;;6.22;;
52918;SDS011;38793;52.690;6.812;2022-08-21T06:42:49;8.05;;;6.05;;
52918;SDS011;38793;52.690;6.812;2022-08-21T06:45:15;13.88;;;6.43;;
52918;SDS011;38793;52.690;6.812;2022-08-21T06:47:40;9.02;;;5.97;;
52918;SDS011;38793;52.690;6.812;2022-08-21T06:50:06;10.63;;;6.28;;
52918;SDS011;38793;52.690;6.812;2022-08-21T06:52:33;11.10;;;6.88;;
52918;SDS011;38793;52.690;6.812;2022-08-21T06:55:00;10.32;;;6.72;;
52918;SDS011;38793;52.690;6.812;2022-08-21T06:57:26;10.25;;;6.63;;
52918;SDS011;38793;52.690;6.812;2022-08-21T06:59:51;8.70;;;6.30;;
52918;SDS011;38793;52.690;6.812;2022-08-21T07:02:17;9.65;;;5.95;;
52918;SDS011;38793;52.690;6.812;2022-08-21T07:04:42;9.82;;;6.55;;
52918;SDS011;38793;52.690;6.812;2022-08-21T07:07:08;9.27;;;6.18;;
52918;SDS011;38793;52.690;6.812;2022-08-21T07:09:34;9.10;;;5.53;;
52918;SDS011;38793;52.690;6.812;2022-08-21T07:11:59;8.95;;;5.80;;
52918;SDS011;38793;52.690;6.812;2022-08-21T07:14:25;12.25;;;5.78;;
52918;SDS011;38793;52.690;6.812;2022-08-21T07:16:51;12.93;;;6.25;;
52918;SDS011;38793;52.690;6.812;2022-08-21T07:19:16;11.45;;;6.43;;
52918;SDS011;38793;52.690;6.812;2022-08-21T07:21:42;10.02;;;5.43;;
52918;SDS011;38793;52.690;6.812;2022-08-21T07:24:08;14.13;;;5.72;;
52918;SDS011;38793;52.690;6.812;2022-08-21T07:26:34;10.00;;;5.38;;
52918;SDS011;38793;52.690;6.812;2022-08-21T07:29:00;13.80;;;5.40;;
52918;SDS011;38793;52.690;6.812;2022-08-21T07:31:26;11.13;;;5.00;;
52918;SDS011;38793;52.690;6.812;2022-08-21T07:33:52;8.90;;;5.50;;
52918;SDS011;38793;52.690;6.812;2022-08-21T07:36:19;7.60;;;4.28;;
52918;SDS011;38793;52.690;6.812;2022-08-21T07:38:45;14.15;;;5.78;;
52918;SDS011;38793;52.690;6.812;2022-08-21T07:41:14;9.98;;;4.85;;
52918;SDS011;38793;52.690;6.812;2022-08-21T07:43:42;9.52;;;5.28;;
52918;SDS011;38793;52.690;6.812;2022-08-21T07:46:09;16.25;;;5.65;;
52918;SDS011;38793;52.690;6.812;2022-08-21T07:48:35;10.02;;;4.25;;
52918;SDS011;38793;52.690;6.812;2022-08-21T07:51:01;14.90;;;4.55;;
52918;SDS011;38793;52.690;6.812;2022-08-21T07:53:30;13.90;;;4.00;;
52918;SDS011;38793;52.690;6.812;2022-08-21T07:55:58;11.88;;;4.85;;
52918;SDS011;38793;52.690;6.812;2022-08-21T07:58:24;8.68;;;3.97;;
52918;SDS011;38793;52.690;6.812;2022-08-21T08:00:50;11.05;;;4.95;;
52918;SDS011;38793;52.690;6.812;2022-08-21T08:05:41;11.25;;;5.15;;
52918;SDS011;38793;52.690;6.812;2022-08-21T08:08:08;8.80;;;4.75;;
52918;SDS011;38793;52.690;6.812;2022-08-21T08:10:33;13.05;;;4.18;;
52918;SDS011;38793;52.690;6.812;2022-08-21T08:12:59;12.38;;;2.92;;
52918;SDS011;38793;52.690;6.812;2022-08-21T08:15:26;9.38;;;4.00;;
52918;SDS011;38793;52.690;6.812;2022-08-21T08:17:52;11.27;;;4.15;;
52918;SDS011;38793;52.690;6.812;2022-08-21T08:20:19;9.13;;;3.30;;
52918;SDS011;38793;52.690;6.812;2022-08-21T08:22:46;14.27;;;4.03;;
52918;SDS011;38793;52.690;6.812;2022-08-21T08:25:13;10.00;;;2.80;;
52918;SDS011;38793;52.690;6.812;2022-08-21T08:27:39;11.70;;;2.38;;
52918;SDS011;38793;52.690;6.812;2022-08-21T08:30:06;6.97;;;2.88;;
52918;SDS011;38793;52.690;6.812;2022-08-21T08:32:33;6.25;;;2.75;;
52918;SDS011;38793;52.690;6.812;2022-08-21T08:34:59;6.45;;;2.63;;
52918;SDS011;38793;52.690;6.812;2022-08-21T08:37:25;5.22;;;1.95;;
52918;SDS011;38793;52.690;6.812;2022-08-21T08:44:57;5.57;;;1.77;;
52918;SDS011;38793;52.690;6.812;2022-08-21T08:47:30;8.50;;;2.50;;
52918;SDS011;38793;52.690;6.812;2022-08-21T08:52:36;6.68;;;3.55;;
52918;SDS011;38793;52.690;6.812;2022-08-21T08:55:09;7.00;;;2.95;;
52918;SDS011;38793;52.690;6.812;2022-08-21T08:57:42;16.23;;;4.00;;
52918;SDS011;38793;52.690;6.812;2022-08-21T09:00:15;12.23;;;3.30;;
52918;SDS011;38793;52.690;6.812;2022-08-21T09:02:43;10.48;;;2.80;;
52918;SDS011;38793;52.690;6.812;2022-08-21T09:05:17;4.25;;;3.00;;
52918;SDS011;38793;52.690;6.812;2022-08-21T09:11:04;4.75;;;2.70;;
52918;SDS011;38793;52.690;6.812;2022-08-21T09:13:46;7.88;;;2.63;;
52918;SDS011;38793;52.690;6.812;2022-08-21T09:25:03;7.60;;;1.45;;
52918;SDS011;38793;52.690;6.812;2022-08-21T09:27:39;6.18;;;2.45;;
52918;SDS011;38793;52.690;6.812;2022-08-21T09:32:32;8.65;;;2.97;;
52918;SDS011;38793;52.690;6.812;2022-08-21T09:35:01;9.93;;;2.58;;
52918;SDS011;38793;52.690;6.812;2022-08-21T09:37:48;9.40;;;2.30;;
52918;SDS011;38793;52.690;6.812;2022-08-21T09:40:15;9.40;;;2.13;;
52918;SDS011;38793;52.690;6.812;2022-08-21T09:42:59;5.88;;;1.48;;
52918;SDS011;38793;52.690;6.812;2022-08-21T09:45:30;7.15;;;1.45;;
52918;SDS011;38793;52.690;6.812;2022-08-21T09:48:07;5.97;;;1.10;;
52918;SDS011;38793;52.690;6.812;2022-08-21T09:51:04;4.88;;;1.80;;
52918;SDS011;38793;52.690;6.812;2022-08-21T09:53:32;9.05;;;2.00;;
52918;SDS011;38793;52.690;6.812;2022-08-21T09:56:02;9.10;;;2.30;;
52918;SDS011;38793;52.690;6.812;2022-08-21T09:58:49;5.63;;;1.90;;
52918;SDS011;38793;52.690;6.812;2022-08-21T10:03:43;3.95;;;1.52;;
52918;SDS011;38793;52.690;6.812;2022-08-21T10:06:09;6.63;;;1.52;;
52918;SDS011;38793;52.690;6.812;2022-08-21T10:08:45;6.03;;;2.20;;
52918;SDS011;38793;52.690;6.812;2022-08-21T10:13:56;5.28;;;1.63;;
52918;SDS011;38793;52.690;6.812;2022-08-21T10:16:33;7.90;;;3.10;;
52918;SDS011;38793;52.690;6.812;2022-08-21T10:19:15;8.05;;;1.75;;
52918;SDS011;38793;52.690;6.812;2022-08-21T10:25:00;7.88;;;1.20;;
52918;SDS011;38793;52.690;6.812;2022-08-21T10:33:10;5.93;;;1.30;;
52918;SDS011;38793;52.690;6.812;2022-08-21T10:35:51;4.20;;;0.85;;
52918;SDS011;38793;52.690;6.812;2022-08-21T10:38:33;3.55;;;1.10;;
52918;SDS011;38793;52.690;6.812;2022-08-21T10:44:10;7.25;;;1.50;;
52918;SDS011;38793;52.690;6.812;2022-08-21T10:49:41;9.75;;;1.13;;
52918;SDS011;38793;52.690;6.812;2022-08-21T10:55:04;9.13;;;2.05;;
52918;SDS011;38793;52.690;6.812;2022-08-21T11:00:08;5.00;;;0.90;;
52918;SDS011;38793;52.690;6.812;2022-08-21T11:02:40;6.97;;;1.23;;
52918;SDS011;38793;52.690;6.812;2022-08-21T11:07:43;5.43;;;0.80;;
52918;SDS011;38793;52.690;6.812;2022-08-21T11:10:21;5.72;;;1.05;;
52918;SDS011;38793;52.690;6.812;2022-08-21T11:12:49;5.55;;;0.80;;
52918;SDS011;38793;52.690;6.812;2022-08-21T11:18:03;4.93;;;0.63;;
52918;SDS011;38793;52.690;6.812;2022-08-21T11:20:54;5.80;;;1.15;;
52918;SDS011;38793;52.690;6.812;2022-08-21T11:23:47;3.60;;;0.60;;
52918;SDS011;38793;52.690;6.812;2022-08-21T11:26:24;8.65;;;1.38;;
52918;SDS011;38793;52.690;6.812;2022-08-21T11:29:24;5.68;;;0.85;;
52918;SDS011;38793;52.690;6.812;2022-08-21T11:32:07;4.50;;;1.30;;
52918;SDS011;38793;52.690;6.812;2022-08-21T11:40:16;6.47;;;0.75;;
52918;SDS011;38793;52.690;6.812;2022-08-21T11:45:39;6.78;;;0.60;;
52918;SDS011;38793;52.690;6.812;2022-08-21T11:51:27;4.43;;;0.90;;
52918;SDS011;38793;52.690;6.812;2022-08-21T11:54:23;5.82;;;0.52;;
52918;SDS011;38793;52.690;6.812;2022-08-21T11:57:05;6.53;;;1.35;;
52918;SDS011;38793;52.690;6.812;2022-08-21T11:59:46;5.40;;;0.65;;
52918;SDS011;38793;52.690;6.812;2022-08-21T12:02:38;5.77;;;0.73;;
52918;SDS011;38793;52.690;6.812;2022-08-21T12:05:11;3.45;;;0.43;;
52918;SDS011;38793;52.690;6.812;2022-08-21T12:10:31;7.25;;;0.60;;
52918;SDS011;38793;52.690;6.812;2022-08-21T12:13:08;3.92;;;0.52;;
52918;SDS011;38793;52.690;6.812;2022-08-21T12:15:47;5.97;;;1.90;;
52918;SDS011;38793;52.690;6.812;2022-08-21T12:18:21;3.47;;;0.60;;
52918;SDS011;38793;52.690;6.812;2022-08-21T12:23:31;5.03;;;0.68;;
52918;SDS011;38793;52.690;6.812;2022-08-21T12:28:51;4.70;;;0.75;;
52918;SDS011;38793;52.690;6.812;2022-08-21T12:31:29;7.13;;;0.80;;
52918;SDS011;38793;52.690;6.812;2022-08-21T12:33:58;3.13;;;0.60;;
52918;SDS011;38793;52.690;6.812;2022-08-21T12:36:40;5.20;;;0.80;;
52918;SDS011;38793;52.690;6.812;2022-08-21T12:39:15;2.25;;;0.50;;
52918;SDS011;38793;52.690;6.812;2022-08-21T12:44:27;3.15;;;0.90;;
52918;SDS011;38793;52.690;6.812;2022-08-21T12:47:04;29.13;;;7.65;;
52918;SDS011;38793;52.690;6.812;2022-08-21T12:49:33;4.18;;;0.73;;
52918;SDS011;38793;52.690;6.812;2022-08-21T12:52:16;4.60;;;0.70;;
52918;SDS011;38793;52.690;6.812;2022-08-21T12:54:47;11.65;;;1.52;;
52918;SDS011;38793;52.690;6.812;2022-08-21T12:57:20;5.40;;;0.73;;
52918;SDS011;38793;52.690;6.812;2022-08-21T12:59:55;4.43;;;0.50;;
52918;SDS011;38793;52.690;6.812;2022-08-21T13:02:29;2.78;;;0.40;;
52918;SDS011;38793;52.690;6.812;2022-08-21T13:04:57;8.10;;;1.60;;
52918;SDS011;38793;52.690;6.812;2022-08-21T13:07:27;4.20;;;0.63;;
52918;SDS011;38793;52.690;6.812;2022-08-21T13:09:57;5.20;;;1.35;;
52918;SDS011;38793;52.690;6.812;2022-08-21T13:12:26;5.95;;;1.08;;
52918;SDS011;38793;52.690;6.812;2022-08-21T13:14:55;5.40;;;1.15;;
52918;SDS011;38793;52.690;6.812;2022-08-21T13:17:23;5.03;;;0.68;;
52918;SDS011;38793;52.690;6.812;2022-08-21T13:19:54;3.30;;;0.52;;
52918;SDS011;38793;52.690;6.812;2022-08-21T13:22:21;12.95;;;1.10;;
52918;SDS011;38793;52.690;6.812;2022-08-21T13:24:48;3.95;;;0.63;;
52918;SDS011;38793;52.690;6.812;2022-08-21T13:27:18;4.15;;;0.70;;
52918;SDS011;38793;52.690;6.812;2022-08-21T13:29:47;10.30;;;1.02;;
52918;SDS011;38793;52.690;6.812;2022-08-21T13:32:19;4.93;;;1.05;;
52918;SDS011;38793;52.690;6.812;2022-08-21T13:34:49;5.60;;;1.02;;
52918;SDS011;38793;52.690;6.812;2022-08-21T13:37:16;5.10;;;1.00;;
52918;SDS011;38793;52.690;6.812;2022-08-21T13:39:47;6.35;;;1.05;;
52918;SDS011;38793;52.690;6.812;2022-08-21T13:42:17;3.88;;;0.63;;
52918;SDS011;38793;52.690;6.812;2022-08-21T13:44:45;9.80;;;1.50;;
52918;SDS011;38793;52.690;6.812;2022-08-21T13:47:12;5.57;;;0.75;;
52918;SDS011;38793;52.690;6.812;2022-08-21T13:49:41;3.92;;;0.68;;
52918;SDS011;38793;52.690;6.812;2022-08-21T13:52:22;6.85;;;1.13;;
52918;SDS011;38793;52.690;6.812;2022-08-21T13:54:58;17.02;;;0.95;;
52918;SDS011;38793;52.690;6.812;2022-08-21T13:57:27;6.65;;;1.27;;
52918;SDS011;38793;52.690;6.812;2022-08-21T14:00:15;4.10;;;1.00;;
52918;SDS011;38793;52.690;6.812;2022-08-21T14:02:45;7.90;;;1.00;;
52918;SDS011;38793;52.690;6.812;2022-08-21T14:05:21;5.35;;;1.10;;
52918;SDS011;38793;52.690;6.812;2022-08-21T14:07:56;7.80;;;1.10;;
52918;SDS011;38793;52.690;6.812;2022-08-21T14:10:30;8.27;;;0.80;;
52918;SDS011;38793;52.690;6.812;2022-08-21T14:13:03;6.18;;;0.93;;
52918;SDS011;38793;52.690;6.812;2022-08-21T14:15:32;18.30;;;1.45;;
52918;SDS011;38793;52.690;6.812;2022-08-21T14:18:13;4.55;;;0.73;;
52918;SDS011;38793;52.690;6.812;2022-08-21T14:20:40;5.38;;;0.77;;
52918;SDS011;38793;52.690;6.812;2022-08-21T14:23:06;8.10;;;0.88;;
52918;SDS011;38793;52.690;6.812;2022-08-21T14:25:39;7.75;;;0.85;;
52918;SDS011;38793;52.690;6.812;2022-08-21T14:28:13;3.72;;;1.10;;
52918;SDS011;38793;52.690;6.812;2022-08-21T14:30:45;5.50;;;1.17;;
52918;SDS011;38793;52.690;6.812;2022-08-21T14:33:13;3.47;;;1.00;;
52918;SDS011;38793;52.690;6.812;2022-08-21T14:35:43;9.70;;;1.25;;
52918;SDS011;38793;52.690;6.812;2022-08-21T14:38:16;6.50;;;0.73;;
52918;SDS011;38793;52.690;6.812;2022-08-21T14:40:44;5.03;;;0.85;;
52918;SDS011;38793;52.690;6.812;2022-08-21T14:43:13;7.82;;;0.80;;
52918;SDS011;38793;52.690;6.812;2022-08-21T14:45:38;5.47;;;0.82;;
52918;SDS011;38793;52.690;6.812;2022-08-21T14:48:06;7.57;;;0.73;;
52918;SDS011;38793;52.690;6.812;2022-08-21T14:50:33;4.95;;;0.98;;
52918;SDS011;38793;52.690;6.812;2022-08-21T14:52:58;5.13;;;0.85;;
52918;SDS011;38793;52.690;6.812;2022-08-21T14:55:24;5.13;;;0.77;;
52918;SDS011;38793;52.690;6.812;2022-08-21T14:57:51;5.72;;;1.00;;
52918;SDS011;38793;52.690;6.812;2022-08-21T15:00:22;6.07;;;0.85;;
52918;SDS011;38793;52.690;6.812;2022-08-21T15:02:50;4.38;;;0.70;;
52918;SDS011;38793;52.690;6.812;2022-08-21T15:05:16;5.38;;;0.65;;
52918;SDS011;38793;52.690;6.812;2022-08-21T15:07:43;4.32;;;0.55;;
52918;SDS011;38793;52.690;6.812;2022-08-21T15:10:10;6.75;;;1.00;;
52918;SDS011;38793;52.690;6.812;2022-08-21T15:12:36;5.40;;;0.70;;
52918;SDS011;38793;52.690;6.812;2022-08-21T15:15:04;6.18;;;0.90;;
52918;SDS011;38793;52.690;6.812;2022-08-21T15:17:30;5.70;;;1.48;;
52918;SDS011;38793;52.690;6.812;2022-08-21T15:19:56;3.88;;;0.88;;
52918;SDS011;38793;52.690;6.812;2022-08-21T15:22:22;6.03;;;1.05;;
52918;SDS011;38793;52.690;6.812;2022-08-21T15:24:47;5.22;;;0.85;;
52918;SDS011;38793;52.690;6.812;2022-08-21T15:27:13;7.53;;;1.00;;
52918;SDS011;38793;52.690;6.812;2022-08-21T15:29:42;4.88;;;0.70;;
52918;SDS011;38793;52.690;6.812;2022-08-21T15:34:45;3.60;;;1.00;;
52918;SDS011;38793;52.690;6.812;2022-08-21T15:37:11;7.30;;;1.40;;
52918;SDS011;38793;52.690;6.812;2022-08-21T15:39:37;7.32;;;1.05;;
52918;SDS011;38793;52.690;6.812;2022-08-21T15:42:02;2.60;;;0.65;;
52918;SDS011;38793;52.690;6.812;2022-08-21T15:44:28;55.35;;;5.15;;
52918;SDS011;38793;52.690;6.812;2022-08-21T15:46:54;16.20;;;2.30;;
52918;SDS011;38793;52.690;6.812;2022-08-21T15:49:21;4.75;;;1.00;;
52918;SDS011;38793;52.690;6.812;2022-08-21T15:51:47;8.95;;;1.42;;
52918;SDS011;38793;52.690;6.812;2022-08-21T15:54:12;55.58;;;3.72;;
52918;SDS011;38793;52.690;6.812;2022-08-21T15:56:38;4.20;;;1.35;;
52918;SDS011;38793;52.690;6.812;2022-08-21T15:59:12;6.93;;;1.38;;
52918;SDS011;38793;52.690;6.812;2022-08-21T16:01:40;12.77;;;1.00;;
52918;SDS011;38793;52.690;6.812;2022-08-21T16:04:07;10.05;;;1.52;;
52918;SDS011;38793;52.690;6.812;2022-08-21T16:06:33;15.02;;;1.80;;
52918;SDS011;38793;52.690;6.812;2022-08-21T16:08:59;6.60;;;0.80;;
52918;SDS011;38793;52.690;6.812;2022-08-21T16:11:25;7.28;;;1.00;;
52918;SDS011;38793;52.690;6.812;2022-08-21T16:13:52;9.65;;;1.38;;
52918;SDS011;38793;52.690;6.812;2022-08-21T16:16:19;7.25;;;1.25;;
52918;SDS011;38793;52.690;6.812;2022-08-21T16:18:47;5.80;;;1.00;;
52918;SDS011;38793;52.690;6.812;2022-08-21T16:21:14;8.23;;;0.90;;
52918;SDS011;38793;52.690;6.812;2022-08-21T16:23:40;5.72;;;0.93;;
52918;SDS011;38793;52.690;6.812;2022-08-21T16:26:06;7.28;;;1.15;;
52918;SDS011;38793;52.690;6.812;2022-08-21T16:28:34;5.57;;;0.95;;
52918;SDS011;38793;52.690;6.812;2022-08-21T16:31:02;7.63;;;1.67;;
52918;SDS011;38793;52.690;6.812;2022-08-21T16:35:58;3.70;;;0.85;;
52918;SDS011;38793;52.690;6.812;2022-08-21T16:38:27;6.82;;;1.35;;
52918;SDS011;38793;52.690;6.812;2022-08-21T16:40:53;5.00;;;1.15;;
52918;SDS011;38793;52.690;6.812;2022-08-21T16:43:25;6.50;;;1.13;;
52918;SDS011;38793;52.690;6.812;2022-08-21T16:45:53;9.40;;;1.73;;